CST,Max TemperatureF,Mean TemperatureF,Min TemperatureF,Max Dew PointF,MeanDew PointF,Min DewpointF,Max Humidity, Mean Humidity, Min Humidity, Max Sea Level PressureIn, Mean Sea Level PressureIn, Min Sea Level PressureIn, Max VisibilityMiles, Mean VisibilityMiles, Min VisibilityMiles, Max Wind SpeedMPH, Mean Wind SpeedMPH, Max Gust SpeedMPH,PrecipitationIn, CloudCover, Events, WindDirDegrees
2013-2-1,30,22,15,19,9,3,64,54,43,30.56,30.44,30.31,10,10,10,15,8,25,0.00,1,,258
2013-2-2,44,36,28,32,25,18,75,65,56,30.31,30.17,30.10,10,10,7,13,6,18,0.00,5,,218
2013-2-3,46,38,30,32,27,21,87,65,37,30.17,30.12,30.03,10,10,10,15,6,22,0.00,2,,288
2013-2-4,48,40,32,39,33,25,87,73,54,30.09,29.95,29.88,10,10,5,17,7,23,0.00,5,,192
2013-2-5,55,42,30,43,35,27,93,79,58,30.10,29.99,29.93,10,7,0,13,4,16,0.00,1,Fog-Snow,263
2013-2-6,55,42,28,37,32,27,93,65,38,30.27,30.17,30.09,10,9,3,10,5,,0.00,0,,62
2013-2-7,64,50,35,54,43,30,94,71,51,30.09,29.96,29.87,10,9,3,21,6,25,0.19,4,Rain,188
2013-2-8,50,44,37,46,33,28,87,73,61,30.37,30.23,29.96,10,9,4,20,14,29,0.00,8,,3
2013-2-9,48,40,33,36,31,27,81,68,53,30.38,30.26,30.05,10,10,10,13,8,16,0.00,5,,81
2013-2-10,59,52,44,54,46,34,88,76,54,30.05,29.86,29.72,10,9,1,24,10,36,0.40,7,Rain-Thunderstorm,165
2013-2-11,55,45,35,46,33,28,87,59,38,30.17,30.08,29.88,10,10,10,15,9,23,0.00,0,,229
2013-2-12,51,40,30,39,32,27,93,71,43,30.17,30.06,29.88,10,9,2,9,3,,0.00,3,,46
2013-2-13,48,42,37,39,36,34,87,79,66,29.96,29.91,29.85,10,8,4,14,8,21,0.08,5,Snow,261
2013-2-14,60,50,39,43,38,32,87,69,48,30.06,29.97,29.92,10,10,7,15,8,20,0.00,0,,219
2013-2-15,48,38,28,34,26,16,81,56,32,30.24,30.18,30.06,10,10,10,17,6,22,0.00,2,,333
2013-2-16,41,32,24,21,15,5,80,53,24,30.25,30.22,30.19,10,10,10,16,5,20,0.00,0,,307
2013-2-17,50,36,23,30,24,18,87,61,35,30.24,30.16,30.04,10,10,10,15,4,18,0.00,3,,157
2013-2-18,59,50,42,48,40,27,88,69,48,30.04,29.88,29.68,10,9,3,25,14,37,0.40,5,Rain-Thunderstorm,179
2013-2-19,48,40,32,37,21,12,76,51,25,30.31,30.14,29.91,10,10,10,21,13,26,0.00,1,,285
2013-2-20,35,30,26,21,16,12,69,55,48,30.40,30.32,30.27,10,10,10,13,7,,0.00,1,,11
2013-2-21,35,32,28,34,25,19,93,75,56,30.29,30.06,29.83,10,7,1,21,9,28,0.91,7,Snow-Thunderstorm,62
2013-2-22,46,40,33,39,33,27,93,81,62,30.10,29.99,29.84,10,8,1,17,6,24,0.00,5,,247
2013-2-23,44,36,28,28,26,23,86,68,49,30.09,30.04,29.99,10,10,10,9,4,9,0.00,0,,317
2013-2-24,53,40,26,30,27,23,93,63,35,30.15,30.08,30.01,10,10,4,10,4,,0.00,0,,59
2013-2-25,59,48,37,39,30,27,81,53,29,30.03,29.82,29.42,10,10,4,22,12,28,0.22,3,Rain-Thunderstorm,56
2013-2-26,51,46,41,48,40,34,94,79,70,29.71,29.46,29.32,10,9,3,24,15,34,0.19,8,Rain,207
2013-2-27,41,38,35,34,32,30,87,73,65,29.93,29.84,29.72,10,9,3,16,11,25,0.00,8,Snow,256
2013-2-28,41,38,35,32,30,27,87,73,65,30.11,30.03,29.92,10,10,5,13,9,18,0.00,8,Snow,290